Time;durP1;ratioP1;P1;durP2;ratioP2;P2;SDS_P1;SDS_P2;PMS_P1;PMS_P2;Temp;Humidity;BMP_temperature;BMP_pressure;BME280_temperature;BME280_humidity;BME280_pressure;Samples;Min_cycle;Max_cycle;Signal;HPM_P1;HPM_P2
2023/06/13 00:01:06;;;;;;;4.30;3.37;;;;;;;18.12;48.38;97730.47;5054260;28;20225;-73
2023/06/13 00:03:33;;;;;;;4.87;3.73;;;;;;;18.12;49.02;97728.59;5053977;28;20672;-73
2023/06/13 00:06:01;;;;;;;4.67;3.53;;;;;;;18.12;48.25;97725.91;5053841;28;20242;-73
2023/06/13 00:08:31;;;;;;;4.20;3.37;;;;;;;18.15;47.74;97724.53;5054097;28;20204;-73
2023/06/13 00:10:59;;;;;;;4.00;3.60;;;;;;;18.19;47.20;97722.91;5054110;28;20205;-73
2023/06/13 00:13:26;;;;;;;3.40;3.10;;;;;;;18.17;47.52;97722.38;5053821;28;20672;-74
2023/06/13 00:15:54;;;;;;;3.93;3.20;;;;;;;18.19;49.43;97721.00;5054011;28;20225;-74
2023/06/13 00:18:23;;;;;;;3.63;3.23;;;;;;;18.25;47.58;97719.94;5053897;28;20216;-73
2023/06/13 00:20:52;;;;;;;4.33;3.67;;;;;;;18.34;47.48;97712.13;5053812;28;20225;-73
2023/06/13 00:23:18;;;;;;;4.10;3.30;;;;;;;18.25;47.21;97709.16;5053684;28;20217;-73
2023/06/13 00:25:44;;;;;;;3.80;3.20;;;;;;;18.26;47.32;97712.66;5053361;28;20228;-73
2023/06/13 00:28:11;;;;;;;4.60;3.27;;;;;;;18.19;48.66;97715.63;5053812;28;20211;-73
2023/06/13 00:30:37;;;;;;;4.60;3.53;;;;;;;18.15;47.57;97713.78;5053643;28;20217;-73
2023/06/13 00:33:04;;;;;;;3.77;3.47;;;;;;;18.27;47.59;97717.75;5052840;28;20217;-73
2023/06/13 00:35:31;;;;;;;3.83;3.40;;;;;;;18.35;46.99;97709.16;5053366;28;20201;-73
2023/06/13 00:37:58;;;;;;;7.17;3.50;;;;;;;18.28;47.71;97710.50;5053711;28;20232;-73
2023/06/13 00:40:25;;;;;;;3.50;3.17;;;;;;;18.26;47.85;97710.78;5053613;28;20209;-73
2023/06/13 00:42:53;;;;;;;5.13;3.50;;;;;;;18.38;46.84;97707.78;5053350;28;20589;-73
2023/06/13 00:45:21;;;;;;;5.23;3.43;;;;;;;18.35;46.07;97703.75;5053286;28;20209;-73
2023/06/13 00:47:54;;;;;;;4.00;3.27;;;;;;;18.42;45.78;97708.84;5053616;28;20209;-73
2023/06/13 00:50:26;;;;;;;3.90;3.60;;;;;;;18.38;47.74;97707.78;5053599;28;20196;-73
2023/06/13 00:52:53;;;;;;;4.23;3.30;;;;;;;18.23;47.41;97705.94;5053571;28;20252;-73
2023/06/13 00:55:19;;;;;;;5.40;3.70;;;;;;;18.20;47.08;97703.81;5053205;28;20213;-73
2023/06/13 00:57:45;;;;;;;4.17;3.20;;;;;;;18.20;48.02;97705.69;5053527;28;20205;-73
2023/06/13 01:00:12;;;;;;;3.40;3.10;;;;;;;18.08;48.12;97702.50;5053496;28;20209;-73
2023/06/13 01:02:40;;;;;;;3.60;3.30;;;;;;;18.11;47.97;97702.78;5053312;28;20233;-73
2023/06/13 01:05:11;;;;;;;3.60;3.30;;;;;;;18.15;46.99;97703.03;5053441;28;20235;-73
2023/06/13 01:07:39;;;;;;;4.80;3.23;;;;;;;18.10;48.20;97703.81;5053321;28;20237;-73
2023/06/13 01:10:07;;;;;;;3.00;2.70;;;;;;;18.12;47.33;97698.19;5053329;28;20209;-73
2023/06/13 01:12:41;;;;;;;3.53;3.23;;;;;;;18.18;46.93;97694.41;5053335;28;20201;-73
2023/06/13 01:15:13;;;;;;;3.67;3.37;;;;;;;18.14;47.66;97698.72;5053366;28;20189;-73
2023/06/13 01:17:49;;;;;;;5.33;3.03;;;;;;;18.08;47.81;97691.72;5053262;28;20197;-73
2023/06/13 01:20:18;;;;;;;4.77;3.67;;;;;;;18.04;47.84;97688.78;5052990;28;20654;-73
2023/06/13 01:23:08;;;;;;;3.50;3.20;;;;;;;18.08;47.57;97681.78;5052737;28;20708;-73
2023/06/13 01:25:47;;;;;;;3.93;3.20;;;;;;;18.03;48.08;97681.81;5053167;28;20279;-73
2023/06/13 01:28:14;;;;;;;3.67;2.83;;;;;;;17.99;47.91;97686.13;5053263;28;20193;-73
2023/06/13 01:30:44;;;;;;;3.23;2.93;;;;;;;17.97;47.93;97682.88;5053197;28;20205;-73
2023/06/13 01:33:11;;;;;;;5.07;3.40;;;;;;;17.90;48.63;97679.72;5053169;28;20209;-73
2023/06/13 01:35:39;;;;;;;3.73;3.30;;;;;;;17.86;48.71;97677.81;5053012;28;20221;-73
2023/06/13 01:38:05;;;;;;;3.70;3.37;;;;;;;17.84;48.88;97680.00;5053142;28;20209;-73
2023/06/13 01:40:32;;;;;;;3.77;3.20;;;;;;;17.87;48.53;97687.53;5053114;28;20259;-73
2023/06/13 01:42:58;;;;;;;3.53;3.23;;;;;;;17.86;48.95;97678.63;5053759;28;20232;-73
2023/06/13 01:45:25;;;;;;;4.10;3.10;;;;;;;17.81;48.87;97688.59;5056555;28;20205;-73
2023/06/13 01:48:33;;;;;;;4.37;3.30;;;;;;;17.78;48.99;97676.50;5056909;28;20205;-73
2023/06/13 01:51:32;;;;;;;3.23;2.80;;;;;;;17.76;49.94;97676.00;5054561;28;20672;-73
2023/06/13 01:54:04;;;;;;;3.40;3.10;;;;;;;17.67;49.82;97674.94;5024484;28;20216;-73
2023/06/13 01:56:33;;;;;;;3.70;3.30;;;;;;;17.69;50.81;97667.41;5056050;28;20228;-73
2023/06/13 01:59:07;;;;;;;3.07;2.80;;;;;;;17.57;50.35;97669.59;5056372;28;20292;-73
2023/06/13 02:01:38;;;;;;;3.43;3.03;;;;;;;17.55;49.94;97663.66;5056572;28;20209;-73
2023/06/13 02:04:05;;;;;;;3.40;3.03;;;;;;;17.58;50.95;97665.00;5056345;28;20659;-73
2023/06/13 02:06:32;;;;;;;4.00;2.80;;;;;;;17.55;50.53;97665.56;5056455;28;20221;-73
2023/06/13 02:09:01;;;;;;;3.40;2.97;;;;;;;17.50;51.25;97666.38;5056534;28;20283;-73
2023/06/13 02:11:28;;;;;;;4.47;3.10;;;;;;;17.53;51.06;97663.16;5056377;28;20205;-73
2023/06/13 02:13:54;;;;;;;6.60;2.97;;;;;;;17.53;50.94;97663.16;5056373;28;20218;-73
2023/06/13 02:16:25;;;;;;;4.50;3.10;;;;;;;17.41;51.77;97659.94;5055938;28;20229;-73
2023/06/13 02:18:55;;;;;;;6.00;2.80;;;;;;;17.33;53.49;97668.50;5056377;28;20212;-74
2023/06/13 02:21:23;;;;;;;4.10;2.97;;;;;;;17.25;52.42;97662.88;5056224;28;20216;-73
2023/06/13 02:23:49;;;;;;;4.60;3.03;;;;;;;17.16;52.94;97668.00;5055802;28;20691;-73
2023/06/13 02:26:16;;;;;;;3.47;3.17;;;;;;;17.17;52.65;97664.25;5055812;28;20603;-73
2023/06/13 02:28:43;;;;;;;4.07;2.93;;;;;;;17.18;53.82;97671.22;5056108;28;20287;-73
2023/06/13 02:31:09;;;;;;;3.10;2.80;;;;;;;17.02;54.06;97668.81;5056067;28;20575;-73
2023/06/13 02:33:38;;;;;;;7.50;3.00;;;;;;;16.93;56.08;97668.56;5056774;28;20224;-73
2023/06/13 02:36:07;;;;;;;4.63;3.30;;;;;;;16.95;56.26;97670.94;5055853;28;20229;-73
2023/06/13 02:38:33;;;;;;;3.30;3.00;;;;;;;16.83;55.05;97673.13;5055877;28;20221;-73
2023/06/13 02:41:02;;;;;;;5.70;3.40;;;;;;;16.76;56.77;97670.69;5055733;28;20205;-73
2023/06/13 02:43:28;;;;;;;4.03;2.90;;;;;;;16.74;56.07;97664.75;5055814;28;20644;-73
2023/06/13 02:45:56;;;;;;;5.53;3.30;;;;;;;16.72;55.19;97668.78;5055437;28;20700;-73
2023/06/13 02:48:25;;;;;;;4.53;3.60;;;;;;;16.58;57.67;97678.44;5055420;28;20637;-73
2023/06/13 02:50:53;;;;;;;7.17;3.30;;;;;;;16.44;58.11;97680.84;5055619;28;20212;-73
2023/06/13 02:53:20;;;;;;;5.60;3.57;;;;;;;16.54;56.57;97677.34;5055379;28;20731;-73
2023/06/13 02:55:48;;;;;;;5.00;3.73;;;;;;;16.45;57.28;97674.41;5054535;28;20307;-73
2023/06/13 02:58:14;;;;;;;3.77;3.37;;;;;;;16.38;57.96;97676.47;5055404;28;20248;-73
2023/06/13 03:00:41;;;;;;;5.73;3.73;;;;;;;16.42;57.79;97676.81;5055442;28;20201;-73
2023/06/13 03:03:07;;;;;;;4.00;3.60;;;;;;;16.39;57.50;97670.06;5055460;28;20221;-73
2023/06/13 03:05:36;;;;;;;4.03;3.33;;;;;;;16.25;58.29;97674.31;5055455;28;20229;-73
2023/06/13 03:08:04;;;;;;;6.20;3.37;;;;;;;16.20;58.91;97676.19;5055271;28;20248;-73
2023/06/13 03:10:32;;;;;;;4.67;3.80;;;;;;;16.23;58.52;97681.81;5055214;28;20201;-73
2023/06/13 03:12:59;;;;;;;6.07;3.33;;;;;;;16.09;59.13;97672.66;5055139;28;20205;-73
2023/06/13 03:15:27;;;;;;;4.80;3.27;;;;;;;16.14;58.08;97674.53;5055070;28;20212;-73
2023/06/13 03:17:53;;;;;;;3.93;3.10;;;;;;;16.17;58.78;97684.75;5055008;28;20208;-73
2023/06/13 03:20:20;;;;;;;4.20;3.53;;;;;;;16.04;58.96;97675.31;5054656;28;20219;-73
2023/06/13 03:22:47;;;;;;;5.13;3.50;;;;;;;15.96;59.66;97680.38;5054589;28;20232;-73
2023/06/13 03:25:14;;;;;;;6.00;3.37;;;;;;;16.00;59.39;97674.22;5055052;28;20196;-73
2023/06/13 03:27:40;;;;;;;3.50;3.20;;;;;;;15.95;60.21;97686.78;5054898;28;20308;-73
2023/06/13 03:30:07;;;;;;;4.07;3.10;;;;;;;16.00;59.73;97679.59;5054727;28;20216;-73
2023/06/13 03:32:36;;;;;;;3.30;3.00;;;;;;;16.16;58.21;97689.31;5054750;28;20208;-73
2023/06/13 03:35:02;;;;;;;4.20;3.27;;;;;;;16.18;58.22;97681.78;5054388;28;20300;-73
2023/06/13 03:37:29;;;;;;;5.87;3.67;;;;;;;16.15;59.00;97686.88;5054188;28;20260;-73
2023/06/13 03:39:55;;;;;;;5.23;2.93;;;;;;;16.23;57.42;97694.41;5054926;28;20205;-73
2023/06/13 03:42:21;;;;;;;4.90;3.00;;;;;;;16.26;57.45;97699.25;5054313;28;20568;-73
2023/06/13 03:44:48;;;;;;;3.60;3.07;;;;;;;16.30;56.78;97703.84;5054238;28;20213;-73
2023/06/13 03:47:15;;;;;;;3.73;2.60;;;;;;;16.32;56.64;97707.06;5053859;28;20724;-73
2023/06/13 03:49:43;;;;;;;4.33;2.90;;;;;;;16.26;57.81;97708.13;5054368;28;20209;-73
2023/06/13 03:52:10;;;;;;;5.37;3.23;;;;;;;16.27;56.68;97703.53;5054453;28;20205;-73
2023/06/13 03:54:36;;;;;;;3.43;3.00;;;;;;;16.32;55.82;97709.75;5054312;28;20223;-73
2023/06/13 03:57:03;;;;;;;3.10;2.80;;;;;;;16.32;56.75;97709.75;5053971;28;20229;-73
2023/06/13 03:59:30;;;;;;;3.43;3.13;;;;;;;16.25;57.75;97711.06;5054345;28;20303;-73
2023/06/13 04:01:56;;;;;;;4.23;2.83;;;;;;;16.35;56.92;97713.78;5053874;28;20281;-73
2023/06/13 04:04:25;;;;;;;4.00;3.07;;;;;;;16.32;56.33;97711.59;5054062;28;20201;-73
2023/06/13 04:06:52;;;;;;;4.00;2.80;;;;;;;16.42;55.74;97715.16;5053905;28;20229;-73
2023/06/13 04:09:18;;;;;;;5.73;2.97;;;;;;;16.37;55.84;97723.16;5054051;28;20212;-73
2023/06/13 04:11:44;;;;;;;3.67;3.20;;;;;;;16.47;54.93;97720.53;5053983;28;20203;-73
2023/06/13 04:14:11;;;;;;;5.23;2.80;;;;;;;16.53;55.11;97724.06;5054025;28;20213;-73
2023/06/13 04:16:37;;;;;;;5.60;2.70;;;;;;;16.45;55.03;97722.69;5053684;28;20229;-73
2023/06/13 04:19:03;;;;;;;4.03;2.93;;;;;;;16.53;55.45;97730.22;5053630;28;20215;-73
2023/06/13 04:21:30;;;;;;;6.07;2.93;;;;;;;16.46;55.11;97726.97;5054068;28;20213;-73
2023/06/13 04:23:56;;;;;;;4.13;3.13;;;;;;;16.59;55.01;97729.16;5053387;28;20213;-73
2023/06/13 04:26:23;;;;;;;3.77;2.83;;;;;;;16.63;54.83;97719.53;5053296;28;20225;-73
2023/06/13 04:28:50;;;;;;;4.40;3.00;;;;;;;16.65;55.98;97717.38;5053588;28;20239;-73
2023/06/13 04:31:17;;;;;;;6.67;3.13;;;;;;;16.57;55.16;97725.13;5053633;28;20201;-73
2023/06/13 04:33:44;;;;;;;5.53;3.10;;;;;;;16.62;55.41;97731.34;5053200;28;20201;-73
2023/06/13 04:36:12;;;;;;;3.50;3.20;;;;;;;16.69;57.24;97726.50;5053354;28;20233;-73
2023/06/13 04:38:39;;;;;;;7.17;3.50;;;;;;;16.67;57.31;97728.66;5053051;28;20691;-73
2023/06/13 04:41:09;;;;;;;3.77;2.90;;;;;;;16.64;57.08;97731.88;5052953;28;20212;-73
2023/06/13 04:43:36;;;;;;;6.60;3.70;;;;;;;16.51;58.09;97732.34;5053133;28;20209;-73
2023/06/13 04:46:03;;;;;;;6.63;3.13;;;;;;;16.67;57.78;97728.66;5052960;28;20715;-73
2023/06/13 04:48:30;;;;;;;4.80;3.20;;;;;;;16.61;57.23;97732.38;5052889;28;20280;-73
2023/06/13 04:50:59;;;;;;;3.70;2.80;;;;;;;16.71;56.28;97735.13;5053195;28;20206;-73
2023/06/13 04:53:30;;;;;;;5.70;3.07;;;;;;;16.77;55.76;97733.22;5053364;28;20197;-73
2023/06/13 04:55:57;;;;;;;5.53;3.00;;;;;;;16.77;54.89;97738.59;5053190;28;20224;-73
2023/06/13 04:58:24;;;;;;;4.07;2.67;;;;;;;16.81;55.73;97742.34;5053266;28;20205;-73
2023/06/13 05:00:51;;;;;;;3.97;2.60;;;;;;;16.89;53.74;97741.84;5053093;28;20233;-73
2023/06/13 05:03:20;;;;;;;3.17;2.63;;;;;;;16.99;52.94;97739.97;5053070;28;20221;-73
2023/06/13 05:05:47;;;;;;;2.77;2.40;;;;;;;17.33;52.69;97733.00;5052982;28;20639;-73
2023/06/13 05:08:19;;;;;;;3.27;2.80;;;;;;;17.68;50.51;97738.38;5052877;28;20567;-73
2023/06/13 05:10:46;;;;;;;5.07;2.90;;;;;;;17.85;50.42;97738.06;5053141;28;20193;-73
2023/06/13 05:13:13;;;;;;;3.13;2.53;;;;;;;18.31;48.36;97740.34;5053055;28;20228;-73
2023/06/13 05:15:42;;;;;;;4.87;2.90;;;;;;;18.57;48.36;97747.25;5053058;28;20604;-74
2023/06/13 05:18:12;;;;;;;4.30;2.90;;;;;;;19.20;46.83;97756.28;5054272;28;20707;-73
2023/06/13 05:20:39;;;;;;;2.70;2.47;;;;;;;20.14;42.82;97750.34;5057156;28;20300;-73
2023/06/13 05:23:07;;;;;;;3.27;2.97;;;;;;;19.99;44.11;97745.88;5056399;28;20236;-73
2023/06/13 05:25:33;;;;;;;4.57;2.90;;;;;;;20.12;43.74;97749.84;5056344;28;21005;-73
2023/06/13 05:28:00;;;;;;;4.10;2.57;;;;;;;20.14;43.24;97747.66;5057364;28;20220;-73
2023/06/13 05:30:27;;;;;;;3.33;2.63;;;;;;;19.73;45.29;97747.25;5056894;28;20208;-73
2023/06/13 05:32:53;;;;;;;4.90;3.10;;;;;;;19.28;45.25;97747.66;5057194;28;20209;-73
2023/06/13 05:35:20;;;;;;;6.03;2.70;;;;;;;19.41;43.99;97739.69;5056475;28;20611;-73
2023/06/13 05:37:46;;;;;;;2.57;2.37;;;;;;;18.78;45.53;97737.19;5056794;28;20205;-73
2023/06/13 05:40:13;;;;;;;4.13;2.47;;;;;;;18.52;44.21;97735.72;5056423;28;20734;-73
2023/06/13 05:42:39;;;;;;;4.60;2.83;;;;;;;18.56;45.66;97740.28;5056518;28;20233;-73
2023/06/13 05:45:08;;;;;;;2.97;2.70;;;;;;;18.48;45.62;97740.84;5056515;28;20210;-73
2023/06/13 05:47:35;;;;;;;4.30;2.90;;;;;;;18.43;43.67;97745.44;5056166;28;20588;-73
2023/06/13 05:50:02;;;;;;;4.27;2.70;;;;;;;18.20;45.12;97744.19;5056631;28;20205;-73
2023/06/13 05:52:30;;;;;;;3.07;2.60;;;;;;;18.18;43.87;97745.53;5056529;28;20202;-73
2023/06/13 05:54:56;;;;;;;4.23;3.00;;;;;;;18.32;44.10;97735.78;5056614;28;20205;-73
2023/06/13 05:57:25;;;;;;;4.13;2.40;;;;;;;18.21;44.31;97751.16;5056291;28;20221;-73
2023/06/13 05:59:51;;;;;;;3.37;2.47;;;;;;;18.65;44.80;97741.31;5056309;28;20201;-73
2023/06/13 06:02:18;;;;;;;3.73;2.77;;;;;;;18.41;43.52;97748.41;5056211;28;20227;-73
2023/06/13 06:04:45;;;;;;;3.63;2.37;;;;;;;18.36;42.29;97734.97;5055973;28;20678;-73
2023/06/13 06:07:11;;;;;;;3.03;2.73;;;;;;;18.32;42.84;97738.47;5055825;28;20232;-73
2023/06/13 06:09:37;;;;;;;3.87;2.77;;;;;;;18.26;43.04;97732.31;5056188;28;20213;-73
2023/06/13 06:12:04;;;;;;;6.83;2.70;;;;;;;18.58;43.52;97743.47;5056052;28;20212;-73
2023/06/13 06:14:30;;;;;;;2.77;2.43;;;;;;;18.75;44.40;97751.19;5056092;28;20232;-73
2023/06/13 06:16:57;;;;;;;2.93;2.70;;;;;;;18.75;42.21;97741.25;5056404;28;20271;-73
2023/06/13 06:19:23;;;;;;;3.87;2.60;;;;;;;18.61;43.02;97737.56;5055415;28;20201;-73
2023/06/13 06:21:50;;;;;;;2.57;2.37;;;;;;;18.55;42.38;97735.94;5055536;28;20266;-73
2023/06/13 06:24:16;;;;;;;3.73;2.90;;;;;;;18.51;41.88;97734.09;5055756;28;20225;-73
2023/06/13 06:26:42;;;;;;;4.57;2.77;;;;;;;18.60;42.60;97737.81;5055556;28;20221;-73
2023/06/13 06:29:09;;;;;;;3.00;2.53;;;;;;;18.74;42.13;97734.22;5055482;28;20212;-73
2023/06/13 06:31:35;;;;;;;2.60;2.40;;;;;;;18.78;42.64;97729.91;5055773;28;20205;-73
2023/06/13 06:34:01;;;;;;;2.87;2.60;;;;;;;18.88;41.22;97734.44;5055412;28;20201;-73
2023/06/13 06:36:28;;;;;;;3.67;2.60;;;;;;;18.75;41.68;97729.66;5055618;28;20224;-73
2023/06/13 06:38:54;;;;;;;3.47;2.33;;;;;;;18.96;40.57;97733.84;5055639;28;20205;-73
2023/06/13 06:41:20;;;;;;;3.97;2.23;;;;;;;18.84;42.06;97734.19;5056523;28;20209;-73
2023/06/13 06:43:47;;;;;;;3.40;2.63;;;;;;;19.10;41.86;97740.22;5055080;28;20221;-73
2023/06/13 06:46:13;;;;;;;5.03;2.70;;;;;;;19.11;39.79;97733.72;5055173;28;20785;-73
2023/06/13 06:48:40;;;;;;;4.40;2.37;;;;;;;19.18;41.03;97740.41;5055326;28;20205;-73
2023/06/13 06:51:06;;;;;;;4.67;3.00;;;;;;;19.25;41.10;97737.41;5055717;28;20213;-73
2023/06/13 06:53:33;;;;;;;2.40;2.20;;;;;;;19.48;41.81;97741.28;5055268;28;20227;-73
2023/06/13 06:55:59;;;;;;;4.63;2.63;;;;;;;19.44;40.87;97744.53;5055335;28;20590;-73
2023/06/13 06:58:25;;;;;;;3.03;2.60;;;;;;;19.45;39.66;97748.06;5055058;28;20201;-73
2023/06/13 07:00:52;;;;;;;4.47;2.73;;;;;;;19.47;38.08;97748.56;5055169;28;20212;-73
2023/06/13 07:03:18;;;;;;;3.77;2.37;;;;;;;19.43;37.47;97755.59;5055183;28;20228;-73
2023/06/13 07:05:44;;;;;;;2.90;2.17;;;;;;;19.50;36.84;97745.31;5055241;28;20225;-73
2023/06/13 07:08:11;;;;;;;3.23;2.33;;;;;;;19.43;36.27;97745.63;5055169;28;20206;-73
2023/06/13 07:10:37;;;;;;;3.20;2.43;;;;;;;19.26;36.89;97737.16;5055172;28;20205;-73
2023/06/13 07:13:03;;;;;;;4.77;2.40;;;;;;;19.29;37.00;97731.19;5054878;28;20197;-73
2023/06/13 07:15:30;;;;;;;3.17;2.47;;;;;;;19.37;36.61;97737.88;5055025;28;20240;-73
2023/06/13 07:17:56;;;;;;;2.60;2.40;;;;;;;19.38;35.67;97732.19;5054903;28;20209;-73
2023/06/13 07:20:23;;;;;;;2.33;2.10;;;;;;;19.57;37.19;97729.59;5054731;28;20209;-73
2023/06/13 07:22:49;;;;;;;3.23;2.57;;;;;;;19.63;34.90;97736.56;5054568;28;20584;-73
2023/06/13 07:25:15;;;;;;;2.77;2.50;;;;;;;19.69;35.59;97735.41;5054482;28;20204;-73
2023/06/13 07:27:42;;;;;;;4.23;2.70;;;;;;;19.58;35.19;97725.81;5054850;28;20204;-73
2023/06/13 07:30:09;;;;;;;3.10;2.20;;;;;;;19.57;34.69;97721.50;5054427;28;20572;-73
2023/06/13 07:32:35;;;;;;;2.60;2.30;;;;;;;19.64;34.98;97727.38;5054826;28;20292;-73
2023/06/13 07:35:02;;;;;;;4.13;2.13;;;;;;;19.68;34.83;97726.50;5054243;28;20688;-73
2023/06/13 07:37:29;;;;;;;2.43;2.20;;;;;;;19.83;35.34;97727.44;5054305;28;20260;-73
2023/06/13 07:39:55;;;;;;;2.37;2.17;;;;;;;19.92;35.41;97737.34;5054585;28;20201;-73
2023/06/13 07:42:21;;;;;;;3.13;2.23;;;;;;;20.00;36.25;97733.22;5053925;28;20201;-73
2023/06/13 07:44:48;;;;;;;4.03;2.60;;;;;;;20.12;35.25;97728.25;5054136;28;20205;-73
2023/06/13 07:47:15;;;;;;;5.20;2.40;;;;;;;20.26;35.87;97726.47;5054203;28;20247;-73
2023/06/13 07:49:41;;;;;;;4.67;2.40;;;;;;;20.19;34.48;97712.50;5054254;28;20205;-73
2023/06/13 07:52:08;;;;;;;4.93;2.60;;;;;;;20.40;35.23;97719.28;5054085;28;20205;-73
2023/06/13 07:54:36;;;;;;;3.13;2.47;;;;;;;20.67;36.03;97714.03;5054058;28;20212;-73
2023/06/13 07:57:02;;;;;;;2.70;2.50;;;;;;;20.85;34.58;97715.94;5054077;28;20233;-73
2023/06/13 07:59:29;;;;;;;4.57;2.30;;;;;;;20.67;35.87;97701.31;5053670;28;20212;-73
2023/06/13 08:01:55;;;;;;;4.40;2.70;;;;;;;20.79;35.27;97706.31;5053811;28;20209;-73
2023/06/13 08:04:21;;;;;;;4.10;2.80;;;;;;;20.69;34.55;97701.84;5053632;28;20236;-73
2023/06/13 08:06:50;;;;;;;4.40;2.43;;;;;;;20.67;35.19;97704.03;5053440;28;20260;-73
2023/06/13 08:09:17;;;;;;;3.63;2.70;;;;;;;20.75;35.93;97699.91;5053896;28;20635;-73
2023/06/13 08:11:44;;;;;;;4.60;2.70;;;;;;;20.89;35.01;97701.53;5053443;28;20209;-73
2023/06/13 08:14:12;;;;;;;3.90;2.30;;;;;;;21.11;34.89;97703.69;5053590;28;20212;-73
2023/06/13 08:16:39;;;;;;;4.60;2.50;;;;;;;21.08;34.27;97704.28;5053539;28;20723;-73
2023/06/13 08:19:05;;;;;;;3.70;2.60;;;;;;;21.20;34.75;97710.84;5053406;28;20213;-73
2023/06/13 08:21:33;;;;;;;4.33;2.27;;;;;;;21.08;34.65;97704.28;5053717;28;20205;-73
2023/06/13 08:24:00;;;;;;;3.87;2.70;;;;;;;21.15;33.55;97713.63;5053413;28;20700;-73
2023/06/13 08:26:32;;;;;;;3.90;2.87;;;;;;;21.12;33.99;97705.31;5053680;28;20332;-73
2023/06/13 08:28:59;;;;;;;4.77;2.60;;;;;;;21.16;33.69;97703.63;5053728;28;20189;-73
2023/06/13 08:31:25;;;;;;;3.40;2.30;;;;;;;21.24;33.53;97703.75;5053623;28;20322;-73
2023/06/13 08:33:52;;;;;;;2.93;2.47;;;;;;;21.26;33.37;97696.13;5053585;28;20201;-74
2023/06/13 08:36:18;;;;;;;5.73;2.70;;;;;;;21.40;33.49;97699.69;5053458;28;20355;-73
2023/06/13 08:38:45;;;;;;;3.00;2.50;;;;;;;21.49;34.05;97697.91;5053469;28;20282;-73
2023/06/13 08:41:12;;;;;;;2.97;2.63;;;;;;;21.58;33.84;97698.84;5052975;28;20584;-73
2023/06/13 08:43:39;;;;;;;3.97;2.63;;;;;;;21.55;33.59;97701.31;5053158;28;20225;-73
2023/06/13 08:46:05;;;;;;;5.13;3.17;;;;;;;21.64;33.27;97704.94;5053159;28;20228;-73
2023/06/13 08:48:32;;;;;;;4.47;2.63;;;;;;;21.63;32.28;97701.44;5052896;28;20549;-73
2023/06/13 08:51:04;;;;;;;5.20;2.53;;;;;;;21.72;32.28;97693.47;5052178;28;20255;-73
2023/06/13 08:53:37;;;;;;;4.00;2.90;;;;;;;21.69;32.60;97694.88;5052110;28;20192;-73
2023/06/13 08:56:08;;;;;;;7.10;2.83;;;;;;;21.78;32.76;97695.78;5052234;28;20233;-73
2023/06/13 08:58:38;;;;;;;5.83;2.90;;;;;;;22.03;33.38;97699.91;5053016;28;20287;-73
2023/06/13 09:01:07;;;;;;;4.63;2.80;;;;;;;21.95;34.04;97697.91;5053379;28;20197;-73
2023/06/13 09:03:35;;;;;;;5.90;2.93;;;;;;;22.15;33.08;97695.59;5052984;28;20232;-73
2023/06/13 09:06:04;;;;;;;3.33;2.63;;;;;;;22.31;33.50;97690.66;5052769;28;20671;-73
2023/06/13 09:08:30;;;;;;;7.67;3.57;;;;;;;22.16;33.52;97693.69;5053199;28;20259;-74
2023/06/13 09:10:59;;;;;;;3.40;2.73;;;;;;;22.29;34.22;97682.84;5052708;28;20664;-73
2023/06/13 09:13:26;;;;;;;5.47;2.93;;;;;;;22.25;32.60;97686.47;5052625;28;20213;-73
2023/06/13 09:15:53;;;;;;;3.10;2.80;;;;;;;22.46;31.91;97688.47;5052643;28;20708;-73
2023/06/13 09:18:20;;;;;;;7.72;3.10;;;;;;;22.66;33.94;97689.94;5052772;28;20209;-73
2023/06/13 09:20:46;;;;;;;4.28;2.85;;;;;;;22.67;32.70;97684.22;5053057;28;20205;-73
2023/06/13 09:23:15;;;;;;;4.05;2.70;;;;;;;22.77;32.82;97680.47;5052781;28;20225;-73
2023/06/13 09:25:45;;;;;;;3.15;2.80;;;;;;;22.66;32.64;97679.91;5052935;28;20229;-73
2023/06/13 09:28:45;;;;;;;4.05;2.88;;;;;;;23.04;31.56;97683.09;5052980;28;20213;-73
2023/06/13 09:31:12;;;;;;;5.10;2.85;;;;;;;22.81;31.21;97695.03;5051213;28;20209;-73
2023/06/13 09:33:39;;;;;;;4.15;2.63;;;;;;;22.77;30.99;97681.28;5052796;28;20204;-73
2023/06/13 09:36:06;;;;;;;3.22;2.80;;;;;;;22.92;32.39;97682.84;5052929;28;20248;-73
2023/06/13 09:38:36;;;;;;;3.35;3.05;;;;;;;22.96;32.88;97671.06;5053951;28;20292;-73
2023/06/13 09:41:04;;;;;;;5.65;2.60;;;;;;;23.15;32.63;97679.03;5052844;28;20220;-73
2023/06/13 09:43:31;;;;;;;8.32;3.05;;;;;;;23.24;31.27;97679.94;5052462;28;20699;-73
2023/06/13 09:45:58;;;;;;;5.18;2.60;;;;;;;23.11;30.27;97668.00;5052717;28;20230;-73
2023/06/13 09:48:25;;;;;;;3.85;2.58;;;;;;;23.38;30.73;97678.75;5052816;28;20205;-73
2023/06/13 09:50:52;;;;;;;3.97;2.70;;;;;;;23.62;30.27;97668.38;5052933;28;20216;-73
2023/06/13 09:53:19;;;;;;;6.28;3.03;;;;;;;23.58;30.32;97672.81;5052569;28;20542;-73
2023/06/13 09:55:46;;;;;;;6.22;2.78;;;;;;;23.54;30.06;97665.59;5052424;28;20272;-73
2023/06/13 09:58:12;;;;;;;3.35;2.72;;;;;;;23.69;30.96;97657.06;5052274;28;20202;-73
2023/06/13 10:00:39;;;;;;;4.18;2.88;;;;;;;23.86;29.81;97665.25;5052822;28;20212;-73
2023/06/13 10:03:06;;;;;;;4.15;2.70;;;;;;;23.84;30.36;97670.22;5052251;28;20213;-73
2023/06/13 10:05:32;;;;;;;3.67;2.72;;;;;;;23.22;29.17;97661.25;5056101;28;20201;-73
2023/06/13 10:07:59;;;;;;;3.70;2.70;;;;;;;23.07;30.44;97653.44;5056402;28;20206;-73
2023/06/13 10:10:25;;;;;;;4.07;2.75;;;;;;;23.62;30.18;97662.94;5056371;28;20571;-73
2023/06/13 10:12:57;;;;;;;9.73;2.88;;;;;;;24.08;29.98;97657.06;5056188;28;20216;-73
2023/06/13 10:15:35;;;;;;;2.92;2.47;;;;;;;24.16;28.87;97648.16;5056428;28;20185;-73
2023/06/13 10:18:10;;;;;;;4.10;2.60;;;;;;;24.00;27.86;97645.06;5055835;28;20209;-73
2023/06/13 10:20:38;;;;;;;3.05;2.67;;;;;;;23.92;27.66;97639.63;5055862;28;20280;-73
2023/06/13 10:23:06;;;;;;;3.17;2.92;;;;;;;24.24;29.44;97644.66;5054007;28;20676;-73
2023/06/13 10:25:34;;;;;;;3.78;2.50;;;;;;;24.22;27.62;97639.53;5055395;28;20640;-73
2023/06/13 10:28:14;;;;;;;5.95;2.95;;;;;;;24.15;28.86;97644.63;5055162;28;20216;-73
2023/06/13 10:31:32;;;;;;;4.22;2.63;;;;;;;24.11;27.87;97632.00;5055838;28;20194;-73
2023/06/13 10:34:17;;;;;;;5.07;3.10;;;;;;;24.01;27.65;97648.59;5054050;28;20209;-73
2023/06/13 10:37:03;;;;;;;4.70;2.70;;;;;;;24.17;27.80;97641.59;5054583;28;20229;-73
2023/06/13 10:39:54;;;;;;;4.55;2.70;;;;;;;24.34;29.16;97647.06;5055659;28;20251;-73
2023/06/13 10:42:37;;;;;;;3.70;2.47;;;;;;;24.03;27.78;97655.31;5055608;28;20197;-73
2023/06/13 10:45:19;;;;;;;5.03;2.70;;;;;;;24.12;27.30;97633.59;5055589;28;20220;-73
2023/06/13 10:47:46;;;;;;;5.00;2.80;;;;;;;24.35;27.45;97645.94;5055230;28;20192;-73
2023/06/13 10:50:15;;;;;;;3.70;2.97;;;;;;;24.46;27.71;97647.28;5054567;28;20211;-73
2023/06/13 10:52:49;;;;;;;5.82;3.20;;;;;;;24.65;27.68;97645.06;5055457;28;20213;-73
2023/06/13 10:55:26;;;;;;;3.03;2.58;;;;;;;24.67;27.07;97640.09;5055207;28;20607;-73
2023/06/13 10:57:56;;;;;;;3.83;2.92;;;;;;;24.63;27.94;97633.72;5054880;28;20220;-74
2023/06/13 11:00:37;;;;;;;8.70;2.88;;;;;;;24.71;29.26;97641.06;5054778;28;20673;-73
2023/06/13 11:03:13;;;;;;;6.70;3.00;;;;;;;24.19;28.39;97628.53;5055352;28;20194;-73
2023/06/13 11:06:06;;;;;;;3.65;3.22;;;;;;;24.12;28.43;97628.16;5055173;28;20233;-73
2023/06/13 11:08:33;;;;;;;4.13;2.80;;;;;;;24.49;28.28;97633.03;5054960;28;20197;-73
2023/06/13 11:10:59;;;;;;;3.55;2.55;;;;;;;24.58;27.58;97625.69;5055300;28;20205;-73
2023/06/13 11:13:28;;;;;;;4.28;2.90;;;;;;;24.43;27.25;97621.50;5055036;28;20568;-73
2023/06/13 11:15:56;;;;;;;3.17;2.88;;;;;;;24.60;27.79;97628.94;5054258;28;20225;-73
2023/06/13 11:18:22;;;;;;;3.92;2.60;;;;;;;24.47;26.84;97625.19;5055166;28;20209;-73
2023/06/13 11:20:55;;;;;;;4.57;3.10;;;;;;;24.56;26.72;97628.72;5054566;28;20213;-73
2023/06/13 11:23:34;;;;;;;3.97;2.50;;;;;;;24.58;25.90;97615.63;5054375;28;20672;-73
2023/06/13 11:26:01;;;;;;;4.88;2.88;;;;;;;24.38;25.94;97624.38;5054783;28;20229;-73
2023/06/13 11:28:28;;;;;;;4.00;2.65;;;;;;;24.26;26.21;97616.06;5054834;28;20288;-73
2023/06/13 11:30:56;;;;;;;4.55;2.72;;;;;;;24.12;26.39;97612.69;5054662;28;20210;-73
2023/06/13 11:33:27;;;;;;;4.35;3.10;;;;;;;24.64;27.00;97616.28;5054682;28;20205;-73
2023/06/13 11:35:59;;;;;;;6.50;3.10;;;;;;;24.81;27.41;97613.56;5054281;28;20734;-73
2023/06/13 11:38:32;;;;;;;3.63;2.83;;;;;;;24.65;26.03;97617.88;5054182;28;20190;-73
2023/06/13 11:40:59;;;;;;;4.07;2.50;;;;;;;24.48;26.15;97604.25;5053036;28;20641;-73